Terminal Aerodrome Forecast
Issued by NWS Quad Cities IA IL

Home | Current Version | Previous Version | Graphics & Text | Print | Product List | Glossary On
Versions: 1 2 3 4 5 6 7 8 9 10 11 12 13 14
000
FTUS43 KDVN 041700
TAFMLI
TAF
KMLI 041720Z 0418/0518 31015G21KT P6SM BKN120
     FM042100 31012KT P6SM BKN120
     FM050000 31008KT P6SM SCT120
     FM051200 30007KT P6SM SKC=

USA.gov is the U.S. government's official web portal to all federal, state and local government web resources and services.